sensor_id;sensor_type;location;lat;lon;timestamp;pressure;altitude;pressure_sealevel;temperature;humidity
17615;BME280;8926;49.720;6.576;2024-02-21T00:02:16;100676.91;;;9.33;85.50
17615;BME280;8926;49.720;6.576;2024-02-21T00:04:43;100670.88;;;9.31;85.32
17615;BME280;8926;49.720;6.576;2024-02-21T00:07:08;100665.66;;;9.31;85.93
17615;BME280;8926;49.720;6.576;2024-02-21T00:09:33;100670.78;;;9.34;85.51
17615;BME280;8926;49.720;6.576;2024-02-21T00:11:59;100658.75;;;9.30;85.20
17615;BME280;8926;49.720;6.576;2024-02-21T00:14:26;100656.19;;;9.29;85.36
17615;BME280;8926;49.720;6.576;2024-02-21T00:16:51;100647.63;;;9.25;85.63
17615;BME280;8926;49.720;6.576;2024-02-21T00:19:16;100651.09;;;9.26;85.91
17615;BME280;8926;49.720;6.576;2024-02-21T00:21:41;100648.44;;;9.27;85.23
17615;BME280;8926;49.720;6.576;2024-02-21T00:24:06;100638.22;;;9.21;85.99
17615;BME280;8926;49.720;6.576;2024-02-21T00:26:32;100633.00;;;9.21;85.86
17615;BME280;8926;49.720;6.576;2024-02-21T00:28:57;100633.00;;;9.21;86.37
17615;BME280;8926;49.720;6.576;2024-02-21T00:31:23;100641.63;;;9.23;86.19
17615;BME280;8926;49.720;6.576;2024-02-21T00:33:49;100633.13;;;9.18;86.44
17615;BME280;8926;49.720;6.576;2024-02-21T00:36:15;100627.09;;;9.16;86.35
17615;BME280;8926;49.720;6.576;2024-02-21T00:38:40;100633.13;;;9.18;86.26
17615;BME280;8926;49.720;6.576;2024-02-21T00:41:06;100626.19;;;9.17;86.10
17615;BME280;8926;49.720;6.576;2024-02-21T00:43:31;100614.06;;;9.16;86.29
17615;BME280;8926;49.720;6.576;2024-02-21T00:45:56;100624.50;;;9.16;86.16
17615;BME280;8926;49.720;6.576;2024-02-21T00:48:21;100627.22;;;9.13;86.43
17615;BME280;8926;49.720;6.576;2024-02-21T00:50:47;100637.69;;;9.11;86.34
17615;BME280;8926;49.720;6.576;2024-02-21T00:53:12;100631.63;;;9.11;87.01
17615;BME280;8926;49.720;6.576;2024-02-21T00:55:38;100624.59;;;9.13;86.92
17615;BME280;8926;49.720;6.576;2024-02-21T00:58:03;100620.19;;;9.15;87.14
17615;BME280;8926;49.720;6.576;2024-02-21T01:00:28;100608.06;;;9.14;86.35
17615;BME280;8926;49.720;6.576;2024-02-21T01:02:53;100607.16;;;9.15;85.82
17615;BME280;8926;49.720;6.576;2024-02-21T01:05:19;100599.41;;;9.13;85.85
17615;BME280;8926;49.720;6.576;2024-02-21T01:07:45;100594.50;;;9.06;86.54
17615;BME280;8926;49.720;6.576;2024-02-21T01:10:10;100584.97;;;9.05;86.12
17615;BME280;8926;49.720;6.576;2024-02-21T01:12:36;100581.47;;;9.06;86.07
17615;BME280;8926;49.720;6.576;2024-02-21T01:15:01;100571.13;;;9.03;86.28
17615;BME280;8926;49.720;6.576;2024-02-21T01:17:27;100564.44;;;8.96;87.28
17615;BME280;8926;49.720;6.576;2024-02-21T01:19:52;100567.06;;;8.96;86.10
17615;BME280;8926;49.720;6.576;2024-02-21T01:22:17;100578.59;;;8.89;87.08
17615;BME280;8926;49.720;6.576;2024-02-21T01:24:43;100583.91;;;8.85;87.28
17615;BME280;8926;49.720;6.576;2024-02-21T01:27:08;100587.25;;;8.89;86.76
17615;BME280;8926;49.720;6.576;2024-02-21T01:29:33;100596.03;;;8.87;87.24
17615;BME280;8926;49.720;6.576;2024-02-21T01:31:58;100595.94;;;8.90;86.63
17615;BME280;8926;49.720;6.576;2024-02-21T01:34:23;100589.81;;;8.91;87.81
17615;BME280;8926;49.720;6.576;2024-02-21T01:36:49;100595.72;;;8.96;87.06
17615;BME280;8926;49.720;6.576;2024-02-21T01:39:14;100597.53;;;8.94;87.37
17615;BME280;8926;49.720;6.576;2024-02-21T01:41:39;100589.72;;;8.94;86.94
17615;BME280;8926;49.720;6.576;2024-02-21T01:44:04;100589.66;;;8.95;86.95
17615;BME280;8926;49.720;6.576;2024-02-21T01:46:29;100587.09;;;8.94;87.07
17615;BME280;8926;49.720;6.576;2024-02-21T01:48:56;100584.44;;;8.95;86.66
17615;BME280;8926;49.720;6.576;2024-02-21T01:51:21;100580.41;;;8.87;87.21
17615;BME280;8926;49.720;6.576;2024-02-21T01:53:46;100574.19;;;8.91;86.81
17615;BME280;8926;49.720;6.576;2024-02-21T01:56:12;100563.75;;;8.91;86.77
17615;BME280;8926;49.720;6.576;2024-02-21T01:58:37;100559.56;;;8.87;86.90
17615;BME280;8926;49.720;6.576;2024-02-21T02:01:04;100553.66;;;8.83;86.64
17615;BME280;8926;49.720;6.576;2024-02-21T02:03:29;100542.38;;;8.82;86.56
17615;BME280;8926;49.720;6.576;2024-02-21T02:05:55;100539.06;;;8.77;87.00
17615;BME280;8926;49.720;6.576;2024-02-21T02:08:20;100521.63;;;8.79;87.00
17615;BME280;8926;49.720;6.576;2024-02-21T02:10:47;100520.59;;;8.83;86.96
17615;BME280;8926;49.720;6.576;2024-02-21T02:13:12;100514.72;;;8.78;87.28
17615;BME280;8926;49.720;6.576;2024-02-21T02:15:47;100505.91;;;8.82;86.95
17615;BME280;8926;49.720;6.576;2024-02-21T02:18:12;100507.72;;;8.80;87.26
17615;BME280;8926;49.720;6.576;2024-02-21T02:20:38;100505.91;;;8.82;86.91
17615;BME280;8926;49.720;6.576;2024-02-21T02:23:10;100505.75;;;8.85;87.30
17615;BME280;8926;49.720;6.576;2024-02-21T02:25:36;100504.91;;;8.85;86.55
17615;BME280;8926;49.720;6.576;2024-02-21T02:28:02;100501.44;;;8.84;86.68
17615;BME280;8926;49.720;6.576;2024-02-21T02:30:28;100493.53;;;8.88;86.15
17615;BME280;8926;49.720;6.576;2024-02-21T02:32:54;100491.81;;;8.87;86.93
17615;BME280;8926;49.720;6.576;2024-02-21T02:35:19;100487.66;;;8.82;86.36
17615;BME280;8926;49.720;6.576;2024-02-21T02:37:48;100482.44;;;8.82;86.39
17615;BME280;8926;49.720;6.576;2024-02-21T02:40:14;100477.03;;;8.87;85.95
17615;BME280;8926;49.720;6.576;2024-02-21T02:42:39;100477.16;;;8.84;85.64
17615;BME280;8926;49.720;6.576;2024-02-21T02:45:05;100479.84;;;8.82;86.55
17615;BME280;8926;49.720;6.576;2024-02-21T02:47:30;100477.28;;;8.81;86.46
17615;BME280;8926;49.720;6.576;2024-02-21T02:49:55;100480.19;;;8.73;86.21
17615;BME280;8926;49.720;6.576;2024-02-21T02:52:21;100488.78;;;8.75;86.54
17615;BME280;8926;49.720;6.576;2024-02-21T02:54:46;100483.69;;;8.72;86.26
17615;BME280;8926;49.720;6.576;2024-02-21T02:57:16;100470.72;;;8.71;86.21
17615;BME280;8926;49.720;6.576;2024-02-21T02:59:42;100474.97;;;8.73;86.12
17615;BME280;8926;49.720;6.576;2024-02-21T03:02:07;100468.97;;;8.71;86.66
17615;BME280;8926;49.720;6.576;2024-02-21T03:04:32;100465.50;;;8.71;87.09
17615;BME280;8926;49.720;6.576;2024-02-21T03:06:58;100465.34;;;8.75;85.91
17615;BME280;8926;49.720;6.576;2024-02-21T03:09:23;100461.94;;;8.73;86.39
17615;BME280;8926;49.720;6.576;2024-02-21T03:11:48;100458.53;;;8.71;85.90
17615;BME280;8926;49.720;6.576;2024-02-21T03:14:13;100454.25;;;8.70;86.79
17615;BME280;8926;49.720;6.576;2024-02-21T03:16:38;100454.25;;;8.70;85.92
17615;BME280;8926;49.720;6.576;2024-02-21T03:19:04;100452.53;;;8.69;86.35
17615;BME280;8926;49.720;6.576;2024-02-21T03:21:29;100454.25;;;8.70;86.13
17615;BME280;8926;49.720;6.576;2024-02-21T03:23:54;100452.66;;;8.66;85.62
17615;BME280;8926;49.720;6.576;2024-02-21T03:26:19;100455.16;;;8.69;86.19
17615;BME280;8926;49.720;6.576;2024-02-21T03:28:44;100448.19;;;8.70;85.82
17615;BME280;8926;49.720;6.576;2024-02-21T03:31:13;100447.22;;;8.72;85.51
17615;BME280;8926;49.720;6.576;2024-02-21T03:33:39;100431.69;;;8.69;84.83
17615;BME280;8926;49.720;6.576;2024-02-21T03:36:04;100434.38;;;8.68;84.63
17615;BME280;8926;49.720;6.576;2024-02-21T03:38:30;100411.09;;;8.63;84.88
17615;BME280;8926;49.720;6.576;2024-02-21T03:40:55;100404.06;;;8.65;85.18
17615;BME280;8926;49.720;6.576;2024-02-21T03:43:20;100407.81;;;8.58;85.13
17615;BME280;8926;49.720;6.576;2024-02-21T03:45:45;100407.03;;;8.56;85.91
17615;BME280;8926;49.720;6.576;2024-02-21T03:48:10;100407.81;;;8.58;85.76
17615;BME280;8926;49.720;6.576;2024-02-21T03:50:36;100405.34;;;8.55;85.73
17615;BME280;8926;49.720;6.576;2024-02-21T03:53:01;100410.31;;;8.61;85.57
17615;BME280;8926;49.720;6.576;2024-02-21T03:55:26;100411.09;;;8.63;85.12
17615;BME280;8926;49.720;6.576;2024-02-21T03:57:51;100400.78;;;8.60;84.98
17615;BME280;8926;49.720;6.576;2024-02-21T04:00:17;100398.19;;;8.60;84.73
17615;BME280;8926;49.720;6.576;2024-02-21T04:02:42;100390.38;;;8.60;84.47
17615;BME280;8926;49.720;6.576;2024-02-21T04:05:07;100393.19;;;8.56;84.63
17615;BME280;8926;49.720;6.576;2024-02-21T04:07:36;100386.00;;;8.61;84.84
17615;BME280;8926;49.720;6.576;2024-02-21T04:10:01;100374.03;;;8.57;85.32
17615;BME280;8926;49.720;6.576;2024-02-21T04:12:26;100370.44;;;8.59;85.26
17615;BME280;8926;49.720;6.576;2024-02-21T04:14:51;100370.44;;;8.59;84.82
17615;BME280;8926;49.720;6.576;2024-02-21T04:17:16;100375.91;;;8.53;85.53
17615;BME280;8926;49.720;6.576;2024-02-21T04:19:42;100371.59;;;8.52;84.88
17615;BME280;8926;49.720;6.576;2024-02-21T04:22:07;100365.56;;;8.52;85.26
17615;BME280;8926;49.720;6.576;2024-02-21T04:24:32;100367.38;;;8.49;85.38
17615;BME280;8926;49.720;6.576;2024-02-21T04:26:57;100356.84;;;8.53;85.65
17615;BME280;8926;49.720;6.576;2024-02-21T04:29:22;100352.69;;;8.47;85.63
17615;BME280;8926;49.720;6.576;2024-02-21T04:31:48;100350.91;;;8.49;84.76
17615;BME280;8926;49.720;6.576;2024-02-21T04:34:13;100355.19;;;8.50;85.49
17615;BME280;8926;49.720;6.576;2024-02-21T04:36:38;100351.00;;;8.46;85.93
17615;BME280;8926;49.720;6.576;2024-02-21T04:39:04;100357.97;;;8.45;85.52
17615;BME280;8926;49.720;6.576;2024-02-21T04:41:29;100354.41;;;8.48;85.63
17615;BME280;8926;49.720;6.576;2024-02-21T04:43:54;100366.47;;;8.50;85.62
17615;BME280;8926;49.720;6.576;2024-02-21T04:46:19;100358.69;;;8.49;85.67
17615;BME280;8926;49.720;6.576;2024-02-21T04:48:45;100370.13;;;8.45;86.35
17615;BME280;8926;49.720;6.576;2024-02-21T04:51:11;100356.22;;;8.46;86.09
17615;BME280;8926;49.720;6.576;2024-02-21T04:53:36;100366.63;;;8.46;85.69
17615;BME280;8926;49.720;6.576;2024-02-21T04:56:01;100364.94;;;8.45;85.44
17615;BME280;8926;49.720;6.576;2024-02-21T04:58:26;100355.69;;;8.36;86.05
17615;BME280;8926;49.720;6.576;2024-02-21T05:00:52;100359.00;;;8.41;86.19
17615;BME280;8926;49.720;6.576;2024-02-21T05:03:18;100348.47;;;8.44;85.79
17615;BME280;8926;49.720;6.576;2024-02-21T05:05:43;100352.81;;;8.44;85.55
17615;BME280;8926;49.720;6.576;2024-02-21T05:08:09;100349.66;;;8.36;86.30
17615;BME280;8926;49.720;6.576;2024-02-21T05:10:35;100348.75;;;8.37;85.89
17615;BME280;8926;49.720;6.576;2024-02-21T05:13:00;100349.66;;;8.36;86.38
17615;BME280;8926;49.720;6.576;2024-02-21T05:15:29;100343.53;;;8.37;86.46
17615;BME280;8926;49.720;6.576;2024-02-21T05:17:54;100342.63;;;8.38;85.88
17615;BME280;8926;49.720;6.576;2024-02-21T05:20:19;100339.22;;;8.36;85.84
17615;BME280;8926;49.720;6.576;2024-02-21T05:22:44;100340.94;;;8.37;86.43
17615;BME280;8926;49.720;6.576;2024-02-21T05:25:10;100333.19;;;8.35;86.31
17615;BME280;8926;49.720;6.576;2024-02-21T05:27:35;100335.84;;;8.34;86.54
17615;BME280;8926;49.720;6.576;2024-02-21T05:30:01;100335.84;;;8.34;86.41
17615;BME280;8926;49.720;6.576;2024-02-21T05:32:27;100328.09;;;8.32;86.59
17615;BME280;8926;49.720;6.576;2024-02-21T05:34:52;100323.72;;;8.33;86.34
17615;BME280;8926;49.720;6.576;2024-02-21T05:37:17;100332.41;;;8.32;86.46
17615;BME280;8926;49.720;6.576;2024-02-21T05:39:42;100325.53;;;8.31;86.57
17615;BME280;8926;49.720;6.576;2024-02-21T05:42:08;100321.28;;;8.28;86.81
17615;BME280;8926;49.720;6.576;2024-02-21T05:44:33;100321.91;;;8.35;86.85
17615;BME280;8926;49.720;6.576;2024-02-21T05:46:59;100325.44;;;8.34;86.68
17615;BME280;8926;49.720;6.576;2024-02-21T05:49:24;100322.72;;;8.37;86.93
17615;BME280;8926;49.720;6.576;2024-02-21T05:51:49;100322.72;;;8.37;86.68
17615;BME280;8926;49.720;6.576;2024-02-21T05:54:14;100323.50;;;8.39;86.73
17615;BME280;8926;49.720;6.576;2024-02-21T05:56:43;100321.81;;;8.38;87.13
17615;BME280;8926;49.720;6.576;2024-02-21T05:59:08;100323.38;;;8.42;86.06
17615;BME280;8926;49.720;6.576;2024-02-21T06:01:33;100309.56;;;8.40;86.27
17615;BME280;8926;49.720;6.576;2024-02-21T06:03:58;100305.09;;;8.43;86.52
17615;BME280;8926;49.720;6.576;2024-02-21T06:06:24;100308.72;;;8.39;86.53
17615;BME280;8926;49.720;6.576;2024-02-21T06:08:49;100299.97;;;8.42;86.12
17615;BME280;8926;49.720;6.576;2024-02-21T06:11:15;100293.38;;;8.32;86.58
17615;BME280;8926;49.720;6.576;2024-02-21T06:13:40;100298.56;;;8.32;86.38
17615;BME280;8926;49.720;6.576;2024-02-21T06:16:08;100302.16;;;8.29;86.84
17615;BME280;8926;49.720;6.576;2024-02-21T06:18:34;100291.03;;;8.26;86.38
17615;BME280;8926;49.720;6.576;2024-02-21T06:21:00;100287.41;;;8.30;86.77
17615;BME280;8926;49.720;6.576;2024-02-21T06:23:25;100282.44;;;8.24;86.55
17615;BME280;8926;49.720;6.576;2024-02-21T06:25:50;100292.94;;;8.21;86.19
17615;BME280;8926;49.720;6.576;2024-02-21T06:28:15;100283.38;;;8.21;86.33
17615;BME280;8926;49.720;6.576;2024-02-21T06:30:40;100280.72;;;8.23;86.26
17615;BME280;8926;49.720;6.576;2024-02-21T06:33:06;100291.03;;;8.26;86.31
17615;BME280;8926;49.720;6.576;2024-02-21T06:35:32;100275.53;;;8.23;86.35
17615;BME280;8926;49.720;6.576;2024-02-21T06:37:58;100280.72;;;8.23;86.60
17615;BME280;8926;49.720;6.576;2024-02-21T06:40:23;100272.97;;;8.21;86.73
17615;BME280;8926;49.720;6.576;2024-02-21T06:42:48;100282.53;;;8.21;86.22
17615;BME280;8926;49.720;6.576;2024-02-21T06:45:14;100274.78;;;8.19;86.46
17615;BME280;8926;49.720;6.576;2024-02-21T06:47:39;100272.25;;;8.17;86.39
17615;BME280;8926;49.720;6.576;2024-02-21T06:50:05;100277.44;;;8.17;86.71
17615;BME280;8926;49.720;6.576;2024-02-21T06:52:30;100274.84;;;8.17;86.61
17615;BME280;8926;49.720;6.576;2024-02-21T06:54:56;100280.72;;;8.23;86.19
17615;BME280;8926;49.720;6.576;2024-02-21T06:57:21;100277.44;;;8.17;86.77
17615;BME280;8926;49.720;6.576;2024-02-21T06:59:46;100274.72;;;8.21;86.39
17615;BME280;8926;49.720;6.576;2024-02-21T07:02:11;100269.41;;;8.24;86.29
17615;BME280;8926;49.720;6.576;2024-02-21T07:04:37;100262.50;;;8.23;86.25
17615;BME280;8926;49.720;6.576;2024-02-21T07:07:02;100267.66;;;8.24;85.81
17615;BME280;8926;49.720;6.576;2024-02-21T07:09:27;100273.81;;;8.22;86.07
17615;BME280;8926;49.720;6.576;2024-02-21T07:11:53;100273.72;;;8.25;86.50
17615;BME280;8926;49.720;6.576;2024-02-21T07:14:19;100273.94;;;8.18;86.59
17615;BME280;8926;49.720;6.576;2024-02-21T07:16:44;100267.78;;;8.21;86.37
17615;BME280;8926;49.720;6.576;2024-02-21T07:19:09;100262.56;;;8.21;86.41
17615;BME280;8926;49.720;6.576;2024-02-21T07:21:34;100265.13;;;8.23;86.61
17615;BME280;8926;49.720;6.576;2024-02-21T07:24:00;100263.19;;;8.28;86.29
17615;BME280;8926;49.720;6.576;2024-02-21T07:26:25;100254.66;;;8.24;86.52
17615;BME280;8926;49.720;6.576;2024-02-21T07:28:50;100256.28;;;8.27;86.25
17615;BME280;8926;49.720;6.576;2024-02-21T07:31:15;100258.59;;;8.34;85.93
17615;BME280;8926;49.720;6.576;2024-02-21T07:33:40;100259.44;;;8.35;86.02
17615;BME280;8926;49.720;6.576;2024-02-21T07:36:06;100250.91;;;8.31;86.35
17615;BME280;8926;49.720;6.576;2024-02-21T07:38:32;100253.38;;;8.34;86.24
17615;BME280;8926;49.720;6.576;2024-02-21T07:40:57;100251.56;;;8.36;85.90
17615;BME280;8926;49.720;6.576;2024-02-21T07:43:22;100265.38;;;8.38;85.40
17615;BME280;8926;49.720;6.576;2024-02-21T07:45:48;100261.94;;;8.38;85.74
17615;BME280;8926;49.720;6.576;2024-02-21T07:48:13;100250.84;;;8.33;86.12
17615;BME280;8926;49.720;6.576;2024-02-21T07:50:38;100265.25;;;8.41;85.47
17615;BME280;8926;49.720;6.576;2024-02-21T07:53:03;100262.47;;;8.46;85.71
17615;BME280;8926;49.720;6.576;2024-02-21T07:55:29;100269.38;;;8.47;85.33
17615;BME280;8926;49.720;6.576;2024-02-21T07:57:54;100268.47;;;8.48;85.41
17615;BME280;8926;49.720;6.576;2024-02-21T08:00:19;100269.16;;;8.53;84.78
17615;BME280;8926;49.720;6.576;2024-02-21T08:02:48;100270.97;;;8.51;85.29
17615;BME280;8926;49.720;6.576;2024-02-21T08:05:13;100260.56;;;8.51;84.63
17615;BME280;8926;49.720;6.576;2024-02-21T08:07:39;100253.53;;;8.53;84.80
17615;BME280;8926;49.720;6.576;2024-02-21T08:10:04;100252.69;;;8.53;84.38
17615;BME280;8926;49.720;6.576;2024-02-21T08:12:32;100253.41;;;8.56;84.10
17615;BME280;8926;49.720;6.576;2024-02-21T08:14:57;100243.00;;;8.56;84.65
17615;BME280;8926;49.720;6.576;2024-02-21T08:17:22;100239.19;;;8.63;84.59
17615;BME280;8926;49.720;6.576;2024-02-21T08:19:48;100230.38;;;8.67;83.62
17615;BME280;8926;49.720;6.576;2024-02-21T08:22:14;100229.38;;;8.70;84.02
17615;BME280;8926;49.720;6.576;2024-02-21T08:24:39;100228.03;;;8.81;83.92
17615;BME280;8926;49.720;6.576;2024-02-21T08:27:04;100212.97;;;8.88;84.04
17615;BME280;8926;49.720;6.576;2024-02-21T08:29:29;100212.00;;;8.91;83.59
17615;BME280;8926;49.720;6.576;2024-02-21T08:31:55;100204.31;;;8.88;82.92
17615;BME280;8926;49.720;6.576;2024-02-21T08:34:20;100206.94;;;8.88;83.54
17615;BME280;8926;49.720;6.576;2024-02-21T08:36:45;100196.38;;;8.91;83.90
17615;BME280;8926;49.720;6.576;2024-02-21T08:39:10;100201.47;;;8.94;83.27
17615;BME280;8926;49.720;6.576;2024-02-21T08:41:36;100202.19;;;8.97;83.62
17615;BME280;8926;49.720;6.576;2024-02-21T08:44:01;100199.38;;;9.02;83.00
17615;BME280;8926;49.720;6.576;2024-02-21T08:46:26;100193.31;;;9.01;82.91
17615;BME280;8926;49.720;6.576;2024-02-21T08:48:52;100192.47;;;9.01;82.79
17615;BME280;8926;49.720;6.576;2024-02-21T08:51:17;100194.16;;;9.02;82.95
17615;BME280;8926;49.720;6.576;2024-02-21T08:53:46;100187.25;;;9.01;83.01
17615;BME280;8926;49.720;6.576;2024-02-21T08:56:11;100180.09;;;9.06;82.43
17615;BME280;8926;49.720;6.576;2024-02-21T08:58:36;100174.75;;;9.09;82.53
17615;BME280;8926;49.720;6.576;2024-02-21T09:01:02;100176.28;;;9.13;82.23
17615;BME280;8926;49.720;6.576;2024-02-21T09:03:28;100170.94;;;9.16;82.80
17615;BME280;8926;49.720;6.576;2024-02-21T09:05:54;100171.41;;;9.26;82.76
17615;BME280;8926;49.720;6.576;2024-02-21T09:08:19;100170.28;;;9.31;81.61
17615;BME280;8926;49.720;6.576;2024-02-21T09:10:44;100159.72;;;9.34;81.60
17615;BME280;8926;49.720;6.576;2024-02-21T09:13:09;100156.03;;;9.38;82.08
17615;BME280;8926;49.720;6.576;2024-02-21T09:15:34;100152.09;;;9.48;81.47
17615;BME280;8926;49.720;6.576;2024-02-21T09:18:00;100146.03;;;9.48;80.72
17615;BME280;8926;49.720;6.576;2024-02-21T09:20:25;100136.31;;;9.51;80.55
17615;BME280;8926;49.720;6.576;2024-02-21T09:22:50;100138.00;;;9.52;80.99
17615;BME280;8926;49.720;6.576;2024-02-21T09:25:15;100120.41;;;9.58;80.58
17615;BME280;8926;49.720;6.576;2024-02-21T09:27:41;100113.63;;;9.53;80.34
17615;BME280;8926;49.720;6.576;2024-02-21T09:30:06;100110.03;;;9.56;80.21
17615;BME280;8926;49.720;6.576;2024-02-21T09:32:31;100109.97;;;9.58;79.57
17615;BME280;8926;49.720;6.576;2024-02-21T09:34:58;100094.16;;;9.61;80.16
17615;BME280;8926;49.720;6.576;2024-02-21T09:37:23;100101.06;;;9.62;80.34
17615;BME280;8926;49.720;6.576;2024-02-21T09:39:48;100105.97;;;9.68;79.95
17615;BME280;8926;49.720;6.576;2024-02-21T09:42:15;100094.00;;;9.64;79.73
17615;BME280;8926;49.720;6.576;2024-02-21T09:44:43;100093.84;;;9.67;80.59
17615;BME280;8926;49.720;6.576;2024-02-21T09:47:12;100088.50;;;9.70;79.73
17615;BME280;8926;49.720;6.576;2024-02-21T09:49:39;100082.56;;;9.66;79.62
17615;BME280;8926;49.720;6.576;2024-02-21T09:52:06;100080.69;;;9.70;79.90
17615;BME280;8926;49.720;6.576;2024-02-21T09:54:34;100080.03;;;9.65;79.95
17615;BME280;8926;49.720;6.576;2024-02-21T09:57:00;100076.66;;;9.63;79.92
17615;BME280;8926;49.720;6.576;2024-02-21T09:59:27;100068.69;;;9.66;80.02
17615;BME280;8926;49.720;6.576;2024-02-21T10:01:52;100071.28;;;9.66;80.29
17615;BME280;8926;49.720;6.576;2024-02-21T10:04:17;100067.13;;;9.62;80.32
17615;BME280;8926;49.720;6.576;2024-02-21T10:06:44;100065.94;;;9.69;80.60
17615;BME280;8926;49.720;6.576;2024-02-21T10:09:19;100059.59;;;9.74;80.28
17615;BME280;8926;49.720;6.576;2024-02-21T10:11:44;100058.75;;;9.74;79.92
17615;BME280;8926;49.720;6.576;2024-02-21T10:14:09;100062.56;;;9.67;80.40
17615;BME280;8926;49.720;6.576;2024-02-21T10:16:34;100069.47;;;9.68;80.85
17615;BME280;8926;49.720;6.576;2024-02-21T10:19:00;100067.84;;;9.65;80.71
17615;BME280;8926;49.720;6.576;2024-02-21T10:21:25;100069.47;;;9.68;80.99
17615;BME280;8926;49.720;6.576;2024-02-21T10:23:51;100065.16;;;9.67;81.67
17615;BME280;8926;49.720;6.576;2024-02-21T10:26:17;100057.06;;;9.73;81.27
17615;BME280;8926;49.720;6.576;2024-02-21T10:28:42;100062.91;;;9.78;81.41
17615;BME280;8926;49.720;6.576;2024-02-21T10:31:10;100063.66;;;9.80;81.30
17615;BME280;8926;49.720;6.576;2024-02-21T10:33:35;100063.66;;;9.80;81.03
17615;BME280;8926;49.720;6.576;2024-02-21T10:36:08;100050.47;;;9.83;81.19
17615;BME280;8926;49.720;6.576;2024-02-21T10:38:34;100049.56;;;9.84;81.31
17615;BME280;8926;49.720;6.576;2024-02-21T10:40:59;100048.31;;;9.91;80.97
17615;BME280;8926;49.720;6.576;2024-02-21T10:43:28;100046.13;;;10.01;80.91
17615;BME280;8926;49.720;6.576;2024-02-21T10:45:56;100045.75;;;10.08;81.07
17615;BME280;8926;49.720;6.576;2024-02-21T10:48:29;100044.50;;;10.15;80.17
17615;BME280;8926;49.720;6.576;2024-02-21T10:51:03;100032.19;;;10.17;80.41
17615;BME280;8926;49.720;6.576;2024-02-21T10:53:32;100038.06;;;10.23;80.21
17615;BME280;8926;49.720;6.576;2024-02-21T10:56:11;100021.34;;;10.27;79.64
17615;BME280;8926;49.720;6.576;2024-02-21T10:58:38;100024.72;;;10.29;79.58
17615;BME280;8926;49.720;6.576;2024-02-21T11:01:04;100022.88;;;10.31;79.35
17615;BME280;8926;49.720;6.576;2024-02-21T11:03:30;100029.88;;;10.30;78.34
17615;BME280;8926;49.720;6.576;2024-02-21T11:05:55;100028.56;;;10.22;78.06
17615;BME280;8926;49.720;6.576;2024-02-21T11:08:20;100025.44;;;10.13;77.79
17615;BME280;8926;49.720;6.576;2024-02-21T11:10:46;100014.34;;;10.10;77.88
17615;BME280;8926;49.720;6.576;2024-02-21T11:13:11;100002.59;;;10.01;77.73
17615;BME280;8926;49.720;6.576;2024-02-21T11:15:36;99995.97;;;9.94;78.09
17615;BME280;8926;49.720;6.576;2024-02-21T11:18:02;99997.22;;;10.04;78.80
17615;BME280;8926;49.720;6.576;2024-02-21T11:20:32;99993.19;;;10.14;77.91
17615;BME280;8926;49.720;6.576;2024-02-21T11:22:58;99983.25;;;10.23;77.78
17615;BME280;8926;49.720;6.576;2024-02-21T11:25:23;99978.03;;;10.23;77.31
17615;BME280;8926;49.720;6.576;2024-02-21T11:27:48;99965.91;;;10.22;77.94
17615;BME280;8926;49.720;6.576;2024-02-21T11:30:14;99958.69;;;10.27;77.93
17615;BME280;8926;49.720;6.576;2024-02-21T11:32:39;99954.13;;;10.30;77.84
17615;BME280;8926;49.720;6.576;2024-02-21T11:35:05;99942.16;;;10.26;76.67
17615;BME280;8926;49.720;6.576;2024-02-21T11:37:31;99942.31;;;10.23;77.44
17615;BME280;8926;49.720;6.576;2024-02-21T11:40:02;99936.09;;;10.26;77.02
17615;BME280;8926;49.720;6.576;2024-02-21T11:42:28;99928.88;;;10.31;77.33
17615;BME280;8926;49.720;6.576;2024-02-21T11:44:54;99921.81;;;10.33;77.64
17615;BME280;8926;49.720;6.576;2024-02-21T11:47:22;99906.47;;;10.27;76.43
17615;BME280;8926;49.720;6.576;2024-02-21T11:49:47;99903.38;;;10.18;76.44
17615;BME280;8926;49.720;6.576;2024-02-21T11:52:19;99895.28;;;10.07;76.09
17615;BME280;8926;49.720;6.576;2024-02-21T11:54:47;99878.59;;;10.10;76.71
17615;BME280;8926;49.720;6.576;2024-02-21T11:57:13;99887.19;;;10.12;76.34
17615;BME280;8926;49.720;6.576;2024-02-21T11:59:39;99870.69;;;10.11;76.94
17615;BME280;8926;49.720;6.576;2024-02-21T12:02:04;99875.72;;;10.14;76.78
17615;BME280;8926;49.720;6.576;2024-02-21T12:04:30;99849.47;;;10.17;76.12
17615;BME280;8926;49.720;6.576;2024-02-21T12:06:58;99834.72;;;10.16;76.27
17615;BME280;8926;49.720;6.576;2024-02-21T12:09:24;99838.78;;;10.06;76.34
17615;BME280;8926;49.720;6.576;2024-02-21T12:11:59;99838.53;;;10.11;76.97
17615;BME280;8926;49.720;6.576;2024-02-21T12:14:25;99837.50;;;10.13;76.27
17615;BME280;8926;49.720;6.576;2024-02-21T12:16:50;99846.84;;;10.17;75.92
17615;BME280;8926;49.720;6.576;2024-02-21T12:19:15;99834.44;;;10.23;75.97
17615;BME280;8926;49.720;6.576;2024-02-21T12:21:42;99833.34;;;10.27;75.93
17615;BME280;8926;49.720;6.576;2024-02-21T12:24:26;99813.81;;;10.34;75.94
17615;BME280;8926;49.720;6.576;2024-02-21T12:26:52;99799.00;;;10.34;76.00
17615;BME280;8926;49.720;6.576;2024-02-21T12:29:20;99815.16;;;10.41;76.18
17615;BME280;8926;49.720;6.576;2024-02-21T12:31:46;99812.22;;;10.47;75.95
17615;BME280;8926;49.720;6.576;2024-02-21T12:34:11;99787.19;;;10.43;75.99
17615;BME280;8926;49.720;6.576;2024-02-21T12:36:43;99791.81;;;10.53;75.81
17615;BME280;8926;49.720;6.576;2024-02-21T12:39:11;99801.44;;;10.53;75.00
17615;BME280;8926;49.720;6.576;2024-02-21T12:41:37;99781.78;;;10.46;75.08
17615;BME280;8926;49.720;6.576;2024-02-21T12:44:04;99778.94;;;10.50;75.23
17615;BME280;8926;49.720;6.576;2024-02-21T12:46:29;99758.72;;;10.54;75.33
17615;BME280;8926;49.720;6.576;2024-02-21T12:48:54;99763.75;;;10.57;74.88
17615;BME280;8926;49.720;6.576;2024-02-21T12:51:19;99753.81;;;10.48;74.46
17615;BME280;8926;49.720;6.576;2024-02-21T12:53:46;99759.03;;;10.48;74.49
17615;BME280;8926;49.720;6.576;2024-02-21T12:56:11;99747.66;;;10.49;75.08
17615;BME280;8926;49.720;6.576;2024-02-21T12:58:37;99737.47;;;10.60;74.62
17615;BME280;8926;49.720;6.576;2024-02-21T13:01:02;99736.06;;;10.69;74.39
17615;BME280;8926;49.720;6.576;2024-02-21T13:03:27;99717.34;;;10.76;73.78